Terminal Aerodrome Forecast
Issued by NWS

Home | Current Version | Previous Version | Text Only | Print | Product List | Glossary On
Versions: 1 2 3 4 5 6 7 8 9 10 11 12 13 14 15 16 17
000
FTUS41 KPBZ 281300 AAA
TAFFKL
TAF AMD
KFKL 281342Z 2814/2912 30008G15KT 3SM -SHSN BKN004 OVC008
      TEMPO 2814/2816 -SHRASN BKN004
     FM281600 30006KT P6SM OVC013
     FM282000 31006KT P6SM BKN022
      AMD LTD TO CLD VIS AND WIND=

USA.gov is the U.S. government's official web portal to all federal, state and local government web resources and services.